sensor_id;sensor_type;location;lat;lon;timestamp;P1;durP1;ratioP1;P2;durP2;ratioP2
62880;SDS011;48969;49.934;8.596;2024-02-26T00:02:18;0.30;;;0.30;;
62880;SDS011;48969;49.934;8.596;2024-02-26T00:04:43;0.28;;;0.28;;
62880;SDS011;48969;49.934;8.596;2024-02-26T00:07:09;0.30;;;0.30;;
62880;SDS011;48969;49.934;8.596;2024-02-26T00:09:34;1.13;;;0.35;;
62880;SDS011;48969;49.934;8.596;2024-02-26T00:12:02;0.73;;;0.73;;
62880;SDS011;48969;49.934;8.596;2024-02-26T00:14:28;0.47;;;0.47;;
62880;SDS011;48969;49.934;8.596;2024-02-26T00:16:54;0.70;;;0.68;;
62880;SDS011;48969;49.934;8.596;2024-02-26T00:19:19;1.10;;;1.00;;
62880;SDS011;48969;49.934;8.596;2024-02-26T00:21:44;0.50;;;0.50;;
62880;SDS011;48969;49.934;8.596;2024-02-26T00:24:09;0.77;;;0.77;;
62880;SDS011;48969;49.934;8.596;2024-02-26T00:26:34;1.25;;;0.75;;
62880;SDS011;48969;49.934;8.596;2024-02-26T00:28:59;0.90;;;0.90;;
62880;SDS011;48969;49.934;8.596;2024-02-26T00:31:25;0.25;;;0.25;;
62880;SDS011;48969;49.934;8.596;2024-02-26T00:33:50;0.20;;;0.20;;
62880;SDS011;48969;49.934;8.596;2024-02-26T00:36:15;1.75;;;1.00;;
62880;SDS011;48969;49.934;8.596;2024-02-26T00:38:40;1.20;;;0.95;;
62880;SDS011;48969;49.934;8.596;2024-02-26T00:41:05;0.95;;;0.95;;
62880;SDS011;48969;49.934;8.596;2024-02-26T00:43:31;0.88;;;0.77;;
62880;SDS011;48969;49.934;8.596;2024-02-26T00:45:56;0.98;;;0.60;;
62880;SDS011;48969;49.934;8.596;2024-02-26T00:48:21;1.42;;;0.80;;
62880;SDS011;48969;49.934;8.596;2024-02-26T00:50:47;1.70;;;0.50;;
62880;SDS011;48969;49.934;8.596;2024-02-26T00:53:12;0.38;;;0.38;;
62880;SDS011;48969;49.934;8.596;2024-02-26T00:55:40;0.55;;;0.50;;
62880;SDS011;48969;49.934;8.596;2024-02-26T00:58:05;0.20;;;0.20;;
62880;SDS011;48969;49.934;8.596;2024-02-26T01:00:31;0.75;;;0.50;;
62880;SDS011;48969;49.934;8.596;2024-02-26T01:03:05;0.35;;;0.20;;
62880;SDS011;48969;49.934;8.596;2024-02-26T01:05:31;0.30;;;0.30;;
62880;SDS011;48969;49.934;8.596;2024-02-26T01:07:56;0.43;;;0.40;;
62880;SDS011;48969;49.934;8.596;2024-02-26T01:10:21;0.35;;;0.35;;
62880;SDS011;48969;49.934;8.596;2024-02-26T01:12:46;2.92;;;1.92;;
62880;SDS011;48969;49.934;8.596;2024-02-26T01:15:14;0.70;;;0.50;;
62880;SDS011;48969;49.934;8.596;2024-02-26T01:17:39;0.50;;;0.50;;
62880;SDS011;48969;49.934;8.596;2024-02-26T01:20:05;0.73;;;0.73;;
62880;SDS011;48969;49.934;8.596;2024-02-26T01:22:30;0.90;;;0.90;;
62880;SDS011;48969;49.934;8.596;2024-02-26T01:24:57;1.00;;;0.73;;
62880;SDS011;48969;49.934;8.596;2024-02-26T01:27:23;0.40;;;0.40;;
62880;SDS011;48969;49.934;8.596;2024-02-26T01:29:51;0.20;;;0.20;;
62880;SDS011;48969;49.934;8.596;2024-02-26T01:32:17;0.35;;;0.35;;
62880;SDS011;48969;49.934;8.596;2024-02-26T01:34:42;0.30;;;0.30;;
62880;SDS011;48969;49.934;8.596;2024-02-26T01:37:07;0.52;;;0.30;;
62880;SDS011;48969;49.934;8.596;2024-02-26T01:39:32;0.70;;;0.70;;
62880;SDS011;48969;49.934;8.596;2024-02-26T01:41:58;0.88;;;0.50;;
62880;SDS011;48969;49.934;8.596;2024-02-26T01:44:23;0.45;;;0.45;;
62880;SDS011;48969;49.934;8.596;2024-02-26T01:46:48;0.47;;;0.47;;
62880;SDS011;48969;49.934;8.596;2024-02-26T01:49:13;0.73;;;0.47;;
62880;SDS011;48969;49.934;8.596;2024-02-26T01:51:39;0.30;;;0.30;;
62880;SDS011;48969;49.934;8.596;2024-02-26T01:54:04;0.55;;;0.55;;
62880;SDS011;48969;49.934;8.596;2024-02-26T01:56:30;0.85;;;0.60;;
62880;SDS011;48969;49.934;8.596;2024-02-26T01:58:57;0.77;;;0.77;;
62880;SDS011;48969;49.934;8.596;2024-02-26T02:01:22;0.40;;;0.40;;
62880;SDS011;48969;49.934;8.596;2024-02-26T02:03:50;1.55;;;0.98;;
62880;SDS011;48969;49.934;8.596;2024-02-26T02:06:15;0.22;;;0.22;;
62880;SDS011;48969;49.934;8.596;2024-02-26T02:08:40;0.80;;;0.57;;
62880;SDS011;48969;49.934;8.596;2024-02-26T02:11:06;0.20;;;0.20;;
62880;SDS011;48969;49.934;8.596;2024-02-26T02:13:32;0.27;;;0.27;;
62880;SDS011;48969;49.934;8.596;2024-02-26T02:15:57;0.85;;;0.68;;
62880;SDS011;48969;49.934;8.596;2024-02-26T02:18:22;0.77;;;0.77;;
62880;SDS011;48969;49.934;8.596;2024-02-26T02:20:47;0.55;;;0.55;;
62880;SDS011;48969;49.934;8.596;2024-02-26T02:23:12;0.73;;;0.68;;
62880;SDS011;48969;49.934;8.596;2024-02-26T02:25:39;0.43;;;0.43;;
62880;SDS011;48969;49.934;8.596;2024-02-26T02:28:04;0.68;;;0.68;;
62880;SDS011;48969;49.934;8.596;2024-02-26T02:30:29;1.25;;;0.32;;
62880;SDS011;48969;49.934;8.596;2024-02-26T02:32:55;18.80;;;0.82;;
62880;SDS011;48969;49.934;8.596;2024-02-26T02:35:22;0.32;;;0.32;;
62880;SDS011;48969;49.934;8.596;2024-02-26T02:37:47;1.00;;;1.00;;
62880;SDS011;48969;49.934;8.596;2024-02-26T02:40:13;0.95;;;0.95;;
62880;SDS011;48969;49.934;8.596;2024-02-26T02:42:38;0.38;;;0.38;;
62880;SDS011;48969;49.934;8.596;2024-02-26T02:45:03;7.65;;;1.27;;
62880;SDS011;48969;49.934;8.596;2024-02-26T02:47:28;0.45;;;0.45;;
62880;SDS011;48969;49.934;8.596;2024-02-26T02:49:54;0.50;;;0.50;;
62880;SDS011;48969;49.934;8.596;2024-02-26T02:52:19;0.32;;;0.32;;
62880;SDS011;48969;49.934;8.596;2024-02-26T02:54:44;0.30;;;0.30;;
62880;SDS011;48969;49.934;8.596;2024-02-26T02:57:11;0.20;;;0.20;;
62880;SDS011;48969;49.934;8.596;2024-02-26T02:59:37;0.28;;;0.28;;
62880;SDS011;48969;49.934;8.596;2024-02-26T03:02:02;0.30;;;0.30;;
62880;SDS011;48969;49.934;8.596;2024-02-26T03:07:30;0.40;;;0.40;;
62880;SDS011;48969;49.934;8.596;2024-02-26T03:09:55;0.70;;;0.70;;
62880;SDS011;48969;49.934;8.596;2024-02-26T03:12:21;0.35;;;0.35;;
62880;SDS011;48969;49.934;8.596;2024-02-26T03:14:46;1.15;;;1.15;;
62880;SDS011;48969;49.934;8.596;2024-02-26T03:17:11;0.73;;;0.73;;
62880;SDS011;48969;49.934;8.596;2024-02-26T03:19:36;2.83;;;0.65;;
62880;SDS011;48969;49.934;8.596;2024-02-26T03:22:01;0.25;;;0.25;;
62880;SDS011;48969;49.934;8.596;2024-02-26T03:24:27;0.63;;;0.40;;
62880;SDS011;48969;49.934;8.596;2024-02-26T03:26:52;0.70;;;0.70;;
62880;SDS011;48969;49.934;8.596;2024-02-26T03:29:17;2.22;;;2.00;;
62880;SDS011;48969;49.934;8.596;2024-02-26T03:31:42;0.47;;;0.45;;
62880;SDS011;48969;49.934;8.596;2024-02-26T03:34:08;0.30;;;0.30;;
62880;SDS011;48969;49.934;8.596;2024-02-26T03:36:33;0.40;;;0.40;;
62880;SDS011;48969;49.934;8.596;2024-02-26T03:38:59;0.50;;;0.50;;
62880;SDS011;48969;49.934;8.596;2024-02-26T03:41:24;1.48;;;0.93;;
62880;SDS011;48969;49.934;8.596;2024-02-26T03:43:49;3.15;;;2.38;;
62880;SDS011;48969;49.934;8.596;2024-02-26T03:46:14;0.57;;;0.32;;
62880;SDS011;48969;49.934;8.596;2024-02-26T03:48:42;0.20;;;0.20;;
62880;SDS011;48969;49.934;8.596;2024-02-26T03:51:08;2.70;;;0.50;;
62880;SDS011;48969;49.934;8.596;2024-02-26T03:53:33;0.88;;;0.57;;
62880;SDS011;48969;49.934;8.596;2024-02-26T03:56:02;13.60;;;1.65;;
62880;SDS011;48969;49.934;8.596;2024-02-26T03:58:28;0.45;;;0.45;;
62880;SDS011;48969;49.934;8.596;2024-02-26T04:00:53;0.30;;;0.30;;
62880;SDS011;48969;49.934;8.596;2024-02-26T04:03:18;0.30;;;0.30;;
62880;SDS011;48969;49.934;8.596;2024-02-26T04:05:43;0.40;;;0.40;;
62880;SDS011;48969;49.934;8.596;2024-02-26T04:08:08;0.55;;;0.43;;
62880;SDS011;48969;49.934;8.596;2024-02-26T04:10:35;0.30;;;0.30;;
62880;SDS011;48969;49.934;8.596;2024-02-26T04:13:03;0.68;;;0.68;;
62880;SDS011;48969;49.934;8.596;2024-02-26T04:15:28;0.30;;;0.30;;
62880;SDS011;48969;49.934;8.596;2024-02-26T04:17:54;0.55;;;0.55;;
62880;SDS011;48969;49.934;8.596;2024-02-26T04:20:19;1.40;;;1.30;;
62880;SDS011;48969;49.934;8.596;2024-02-26T04:22:44;1.35;;;0.85;;
62880;SDS011;48969;49.934;8.596;2024-02-26T04:25:10;3.67;;;2.60;;
62880;SDS011;48969;49.934;8.596;2024-02-26T04:27:35;0.60;;;0.60;;
62880;SDS011;48969;49.934;8.596;2024-02-26T04:30:00;0.25;;;0.25;;
62880;SDS011;48969;49.934;8.596;2024-02-26T04:32:25;0.40;;;0.40;;
62880;SDS011;48969;49.934;8.596;2024-02-26T04:34:50;0.25;;;0.25;;
62880;SDS011;48969;49.934;8.596;2024-02-26T04:37:16;0.38;;;0.38;;
62880;SDS011;48969;49.934;8.596;2024-02-26T04:39:41;0.50;;;0.50;;
62880;SDS011;48969;49.934;8.596;2024-02-26T04:42:06;2.53;;;2.08;;
62880;SDS011;48969;49.934;8.596;2024-02-26T04:44:31;0.80;;;0.80;;
62880;SDS011;48969;49.934;8.596;2024-02-26T04:46:56;0.60;;;0.60;;
62880;SDS011;48969;49.934;8.596;2024-02-26T04:49:21;2.53;;;1.48;;
62880;SDS011;48969;49.934;8.596;2024-02-26T04:51:46;0.77;;;0.77;;
62880;SDS011;48969;49.934;8.596;2024-02-26T04:54:13;0.85;;;0.85;;
62880;SDS011;48969;49.934;8.596;2024-02-26T04:56:38;2.44;;;1.48;;
62880;SDS011;48969;49.934;8.596;2024-02-26T04:59:03;0.32;;;0.32;;
62880;SDS011;48969;49.934;8.596;2024-02-26T05:01:29;0.30;;;0.30;;
62880;SDS011;48969;49.934;8.596;2024-02-26T05:03:54;0.68;;;0.68;;
62880;SDS011;48969;49.934;8.596;2024-02-26T05:06:19;2.72;;;1.17;;
62880;SDS011;48969;49.934;8.596;2024-02-26T05:08:44;0.30;;;0.30;;
62880;SDS011;48969;49.934;8.596;2024-02-26T05:11:11;0.75;;;0.75;;
62880;SDS011;48969;49.934;8.596;2024-02-26T05:13:36;0.47;;;0.47;;
62880;SDS011;48969;49.934;8.596;2024-02-26T05:16:01;0.32;;;0.32;;
62880;SDS011;48969;49.934;8.596;2024-02-26T05:18:27;0.93;;;0.90;;
62880;SDS011;48969;49.934;8.596;2024-02-26T05:20:52;0.30;;;0.30;;
62880;SDS011;48969;49.934;8.596;2024-02-26T05:23:17;0.43;;;0.43;;
62880;SDS011;48969;49.934;8.596;2024-02-26T05:25:42;0.40;;;0.40;;
62880;SDS011;48969;49.934;8.596;2024-02-26T05:28:10;1.30;;;1.20;;
62880;SDS011;48969;49.934;8.596;2024-02-26T05:30:35;0.50;;;0.50;;
62880;SDS011;48969;49.934;8.596;2024-02-26T05:33:00;2.28;;;1.05;;
62880;SDS011;48969;49.934;8.596;2024-02-26T05:35:25;0.50;;;0.47;;
62880;SDS011;48969;49.934;8.596;2024-02-26T05:37:53;0.63;;;0.63;;
62880;SDS011;48969;49.934;8.596;2024-02-26T05:40:19;1.27;;;1.27;;
62880;SDS011;48969;49.934;8.596;2024-02-26T05:42:44;2.90;;;1.85;;
62880;SDS011;48969;49.934;8.596;2024-02-26T05:45:10;3.35;;;1.95;;
62880;SDS011;48969;49.934;8.596;2024-02-26T05:47:35;0.47;;;0.47;;
62880;SDS011;48969;49.934;8.596;2024-02-26T05:50:00;1.05;;;1.00;;
62880;SDS011;48969;49.934;8.596;2024-02-26T05:52:26;0.70;;;0.70;;
62880;SDS011;48969;49.934;8.596;2024-02-26T05:54:51;5.30;;;2.13;;
62880;SDS011;48969;49.934;8.596;2024-02-26T05:57:16;1.10;;;1.00;;
62880;SDS011;48969;49.934;8.596;2024-02-26T05:59:43;0.90;;;0.85;;
62880;SDS011;48969;49.934;8.596;2024-02-26T06:02:08;0.58;;;0.58;;
62880;SDS011;48969;49.934;8.596;2024-02-26T06:04:33;3.47;;;2.22;;
62880;SDS011;48969;49.934;8.596;2024-02-26T06:06:59;2.83;;;2.05;;
62880;SDS011;48969;49.934;8.596;2024-02-26T06:09:24;9.02;;;2.00;;
62880;SDS011;48969;49.934;8.596;2024-02-26T06:11:49;1.88;;;1.77;;
62880;SDS011;48969;49.934;8.596;2024-02-26T06:14:14;0.73;;;0.73;;
62880;SDS011;48969;49.934;8.596;2024-02-26T06:16:43;1.95;;;1.50;;
62880;SDS011;48969;49.934;8.596;2024-02-26T06:19:08;3.17;;;2.05;;
62880;SDS011;48969;49.934;8.596;2024-02-26T06:21:33;5.00;;;2.25;;
62880;SDS011;48969;49.934;8.596;2024-02-26T06:23:59;1.77;;;1.63;;
62880;SDS011;48969;49.934;8.596;2024-02-26T06:26:24;2.47;;;1.75;;
62880;SDS011;48969;49.934;8.596;2024-02-26T06:28:49;10.13;;;3.10;;
62880;SDS011;48969;49.934;8.596;2024-02-26T06:31:14;2.35;;;1.30;;
62880;SDS011;48969;49.934;8.596;2024-02-26T06:33:40;1.98;;;1.75;;
62880;SDS011;48969;49.934;8.596;2024-02-26T06:36:05;3.88;;;2.20;;
62880;SDS011;48969;49.934;8.596;2024-02-26T06:38:30;3.20;;;2.33;;
62880;SDS011;48969;49.934;8.596;2024-02-26T06:40:55;2.42;;;1.25;;
62880;SDS011;48969;49.934;8.596;2024-02-26T06:43:21;1.23;;;1.13;;
62880;SDS011;48969;49.934;8.596;2024-02-26T06:45:46;2.15;;;1.52;;
62880;SDS011;48969;49.934;8.596;2024-02-26T06:48:11;1.42;;;1.33;;
62880;SDS011;48969;49.934;8.596;2024-02-26T06:50:37;2.88;;;1.45;;
62880;SDS011;48969;49.934;8.596;2024-02-26T06:53:02;2.28;;;2.08;;
62880;SDS011;48969;49.934;8.596;2024-02-26T06:55:27;5.45;;;3.25;;
62880;SDS011;48969;49.934;8.596;2024-02-26T06:57:52;1.10;;;1.08;;
62880;SDS011;48969;49.934;8.596;2024-02-26T07:00:18;0.95;;;0.95;;
62880;SDS011;48969;49.934;8.596;2024-02-26T07:02:43;2.90;;;2.17;;
62880;SDS011;48969;49.934;8.596;2024-02-26T07:05:08;2.10;;;1.33;;
62880;SDS011;48969;49.934;8.596;2024-02-26T07:07:34;0.80;;;0.70;;
62880;SDS011;48969;49.934;8.596;2024-02-26T07:09:59;5.20;;;2.47;;
62880;SDS011;48969;49.934;8.596;2024-02-26T07:12:25;1.08;;;1.02;;
62880;SDS011;48969;49.934;8.596;2024-02-26T07:14:50;6.13;;;3.25;;
62880;SDS011;48969;49.934;8.596;2024-02-26T07:17:17;2.70;;;1.48;;
62880;SDS011;48969;49.934;8.596;2024-02-26T07:19:42;1.38;;;1.15;;
62880;SDS011;48969;49.934;8.596;2024-02-26T07:22:07;2.63;;;1.80;;
62880;SDS011;48969;49.934;8.596;2024-02-26T07:24:33;4.93;;;3.45;;
62880;SDS011;48969;49.934;8.596;2024-02-26T07:26:58;2.65;;;2.28;;
62880;SDS011;48969;49.934;8.596;2024-02-26T07:29:23;2.67;;;1.83;;
62880;SDS011;48969;49.934;8.596;2024-02-26T07:31:48;3.95;;;2.15;;
62880;SDS011;48969;49.934;8.596;2024-02-26T07:34:13;0.98;;;0.77;;
62880;SDS011;48969;49.934;8.596;2024-02-26T07:36:39;2.80;;;1.73;;
62880;SDS011;48969;49.934;8.596;2024-02-26T07:39:04;3.25;;;1.95;;
62880;SDS011;48969;49.934;8.596;2024-02-26T07:41:30;2.63;;;2.28;;
62880;SDS011;48969;49.934;8.596;2024-02-26T07:43:55;3.10;;;2.90;;
62880;SDS011;48969;49.934;8.596;2024-02-26T07:46:20;1.82;;;1.62;;
62880;SDS011;48969;49.934;8.596;2024-02-26T07:48:45;1.45;;;1.35;;
62880;SDS011;48969;49.934;8.596;2024-02-26T07:51:14;3.67;;;1.98;;
62880;SDS011;48969;49.934;8.596;2024-02-26T07:53:39;1.25;;;1.00;;
62880;SDS011;48969;49.934;8.596;2024-02-26T07:56:04;0.95;;;0.95;;
62880;SDS011;48969;49.934;8.596;2024-02-26T07:58:29;3.88;;;1.73;;
62880;SDS011;48969;49.934;8.596;2024-02-26T08:00:54;2.38;;;2.17;;
62880;SDS011;48969;49.934;8.596;2024-02-26T08:03:20;3.88;;;2.88;;
62880;SDS011;48969;49.934;8.596;2024-02-26T08:05:45;2.17;;;1.90;;
62880;SDS011;48969;49.934;8.596;2024-02-26T08:08:10;1.70;;;1.38;;
62880;SDS011;48969;49.934;8.596;2024-02-26T08:10:35;2.25;;;1.23;;
62880;SDS011;48969;49.934;8.596;2024-02-26T08:13:00;5.57;;;1.77;;
62880;SDS011;48969;49.934;8.596;2024-02-26T08:15:33;3.25;;;2.80;;
62880;SDS011;48969;49.934;8.596;2024-02-26T08:17:59;2.53;;;1.88;;
62880;SDS011;48969;49.934;8.596;2024-02-26T08:20:27;3.95;;;2.28;;
62880;SDS011;48969;49.934;8.596;2024-02-26T08:22:52;0.95;;;0.85;;
62880;SDS011;48969;49.934;8.596;2024-02-26T08:25:18;5.46;;;2.92;;
62880;SDS011;48969;49.934;8.596;2024-02-26T08:27:43;1.98;;;1.55;;
62880;SDS011;48969;49.934;8.596;2024-02-26T08:30:08;1.25;;;1.15;;
62880;SDS011;48969;49.934;8.596;2024-02-26T08:32:34;1.48;;;1.38;;
62880;SDS011;48969;49.934;8.596;2024-02-26T08:34:59;8.48;;;3.67;;
62880;SDS011;48969;49.934;8.596;2024-02-26T08:37:24;0.80;;;0.80;;
62880;SDS011;48969;49.934;8.596;2024-02-26T08:39:49;3.72;;;2.96;;
62880;SDS011;48969;49.934;8.596;2024-02-26T08:42:14;5.57;;;3.15;;
62880;SDS011;48969;49.934;8.596;2024-02-26T08:44:39;2.67;;;2.33;;
62880;SDS011;48969;49.934;8.596;2024-02-26T08:47:05;5.07;;;2.72;;
62880;SDS011;48969;49.934;8.596;2024-02-26T08:49:30;7.40;;;3.88;;
62880;SDS011;48969;49.934;8.596;2024-02-26T08:51:56;4.63;;;2.42;;
62880;SDS011;48969;49.934;8.596;2024-02-26T08:54:21;4.85;;;2.65;;
62880;SDS011;48969;49.934;8.596;2024-02-26T08:56:46;1.92;;;1.83;;
62880;SDS011;48969;49.934;8.596;2024-02-26T08:59:12;2.67;;;2.20;;
62880;SDS011;48969;49.934;8.596;2024-02-26T09:01:37;1.75;;;1.45;;
62880;SDS011;48969;49.934;8.596;2024-02-26T09:04:02;1.67;;;1.58;;
62880;SDS011;48969;49.934;8.596;2024-02-26T09:06:27;3.17;;;2.90;;
62880;SDS011;48969;49.934;8.596;2024-02-26T09:08:53;3.90;;;3.28;;
62880;SDS011;48969;49.934;8.596;2024-02-26T09:11:18;8.50;;;3.13;;
62880;SDS011;48969;49.934;8.596;2024-02-26T09:13:43;6.43;;;3.55;;
62880;SDS011;48969;49.934;8.596;2024-02-26T09:16:08;3.55;;;3.25;;
62880;SDS011;48969;49.934;8.596;2024-02-26T09:18:34;4.03;;;3.15;;
62880;SDS011;48969;49.934;8.596;2024-02-26T09:20:59;4.47;;;2.75;;
62880;SDS011;48969;49.934;8.596;2024-02-26T09:23:24;4.42;;;3.60;;
62880;SDS011;48969;49.934;8.596;2024-02-26T09:25:49;6.47;;;3.78;;
62880;SDS011;48969;49.934;8.596;2024-02-26T09:28:19;4.20;;;2.78;;
62880;SDS011;48969;49.934;8.596;2024-02-26T09:30:44;3.53;;;1.73;;
62880;SDS011;48969;49.934;8.596;2024-02-26T09:33:10;4.65;;;3.33;;
62880;SDS011;48969;49.934;8.596;2024-02-26T09:35:35;3.03;;;2.20;;
62880;SDS011;48969;49.934;8.596;2024-02-26T09:38:00;3.25;;;2.95;;
62880;SDS011;48969;49.934;8.596;2024-02-26T09:40:26;6.90;;;3.28;;
62880;SDS011;48969;49.934;8.596;2024-02-26T09:42:53;4.70;;;3.70;;
62880;SDS011;48969;49.934;8.596;2024-02-26T09:45:21;3.03;;;2.45;;
62880;SDS011;48969;49.934;8.596;2024-02-26T09:47:49;5.03;;;2.53;;
62880;SDS011;48969;49.934;8.596;2024-02-26T09:50:16;2.70;;;1.67;;
62880;SDS011;48969;49.934;8.596;2024-02-26T09:52:49;4.82;;;2.83;;
62880;SDS011;48969;49.934;8.596;2024-02-26T09:55:14;6.88;;;4.15;;
62880;SDS011;48969;49.934;8.596;2024-02-26T09:57:46;2.88;;;2.03;;
62880;SDS011;48969;49.934;8.596;2024-02-26T10:00:20;8.38;;;3.78;;
62880;SDS011;48969;49.934;8.596;2024-02-26T10:02:46;4.63;;;1.45;;
62880;SDS011;48969;49.934;8.596;2024-02-26T10:05:13;6.82;;;4.05;;
62880;SDS011;48969;49.934;8.596;2024-02-26T10:07:45;3.58;;;2.67;;
62880;SDS011;48969;49.934;8.596;2024-02-26T10:10:13;5.57;;;3.78;;
62880;SDS011;48969;49.934;8.596;2024-02-26T10:12:39;2.90;;;2.42;;
62880;SDS011;48969;49.934;8.596;2024-02-26T10:15:04;6.70;;;4.28;;
62880;SDS011;48969;49.934;8.596;2024-02-26T10:17:29;7.22;;;4.47;;
62880;SDS011;48969;49.934;8.596;2024-02-26T10:20:13;7.85;;;4.18;;
62880;SDS011;48969;49.934;8.596;2024-02-26T10:22:48;3.95;;;3.38;;
62880;SDS011;48969;49.934;8.596;2024-02-26T10:25:14;2.17;;;2.00;;
62880;SDS011;48969;49.934;8.596;2024-02-26T10:27:42;7.50;;;3.40;;
62880;SDS011;48969;49.934;8.596;2024-02-26T10:30:18;4.35;;;3.10;;
62880;SDS011;48969;49.934;8.596;2024-02-26T10:32:44;5.43;;;2.72;;
62880;SDS011;48969;49.934;8.596;2024-02-26T10:35:09;3.00;;;2.15;;
62880;SDS011;48969;49.934;8.596;2024-02-26T10:37:34;8.45;;;4.30;;
62880;SDS011;48969;49.934;8.596;2024-02-26T10:40:01;4.28;;;2.47;;
62880;SDS011;48969;49.934;8.596;2024-02-26T10:42:26;3.22;;;2.38;;
62880;SDS011;48969;49.934;8.596;2024-02-26T10:44:55;5.95;;;3.25;;
62880;SDS011;48969;49.934;8.596;2024-02-26T10:47:20;3.92;;;2.05;;
62880;SDS011;48969;49.934;8.596;2024-02-26T10:49:46;4.88;;;2.67;;
62880;SDS011;48969;49.934;8.596;2024-02-26T10:52:14;3.53;;;2.55;;
62880;SDS011;48969;49.934;8.596;2024-02-26T10:54:40;2.22;;;1.73;;
62880;SDS011;48969;49.934;8.596;2024-02-26T10:57:09;4.68;;;2.40;;
62880;SDS011;48969;49.934;8.596;2024-02-26T10:59:34;4.32;;;2.47;;
62880;SDS011;48969;49.934;8.596;2024-02-26T11:02:00;1.70;;;1.38;;
62880;SDS011;48969;49.934;8.596;2024-02-26T11:04:25;5.53;;;2.90;;
62880;SDS011;48969;49.934;8.596;2024-02-26T11:06:57;6.20;;;2.88;;
62880;SDS011;48969;49.934;8.596;2024-02-26T11:09:22;1.40;;;1.17;;
62880;SDS011;48969;49.934;8.596;2024-02-26T11:11:50;1.98;;;1.35;;
62880;SDS011;48969;49.934;8.596;2024-02-26T11:14:19;1.17;;;1.17;;
62880;SDS011;48969;49.934;8.596;2024-02-26T11:16:45;1.75;;;1.08;;
62880;SDS011;48969;49.934;8.596;2024-02-26T11:19:11;2.30;;;2.10;;
62880;SDS011;48969;49.934;8.596;2024-02-26T11:21:38;2.70;;;1.50;;
62880;SDS011;48969;49.934;8.596;2024-02-26T11:24:06;1.77;;;1.63;;
62880;SDS011;48969;49.934;8.596;2024-02-26T11:26:33;4.50;;;2.83;;
62880;SDS011;48969;49.934;8.596;2024-02-26T11:29:02;1.58;;;1.48;;
62880;SDS011;48969;49.934;8.596;2024-02-26T11:31:30;2.55;;;1.63;;
62880;SDS011;48969;49.934;8.596;2024-02-26T11:34:19;0.95;;;0.93;;
62880;SDS011;48969;49.934;8.596;2024-02-26T11:36:45;2.17;;;1.95;;
62880;SDS011;48969;49.934;8.596;2024-02-26T11:39:11;5.30;;;2.85;;
62880;SDS011;48969;49.934;8.596;2024-02-26T11:41:38;3.40;;;2.08;;
62880;SDS011;48969;49.934;8.596;2024-02-26T11:44:03;5.90;;;2.80;;
62880;SDS011;48969;49.934;8.596;2024-02-26T11:46:32;9.13;;;3.03;;
62880;SDS011;48969;49.934;8.596;2024-02-26T11:49:02;6.50;;;3.40;;
62880;SDS011;48969;49.934;8.596;2024-02-26T11:51:28;2.33;;;1.58;;
62880;SDS011;48969;49.934;8.596;2024-02-26T11:53:57;3.05;;;2.03;;
62880;SDS011;48969;49.934;8.596;2024-02-26T11:56:23;3.53;;;3.15;;
62880;SDS011;48969;49.934;8.596;2024-02-26T11:58:59;3.95;;;2.40;;
62880;SDS011;48969;49.934;8.596;2024-02-26T12:04:12;5.28;;;3.05;;
62880;SDS011;48969;49.934;8.596;2024-02-26T12:06:43;5.95;;;3.95;;
62880;SDS011;48969;49.934;8.596;2024-02-26T12:09:08;7.13;;;3.33;;
62880;SDS011;48969;49.934;8.596;2024-02-26T12:11:36;5.88;;;3.65;;
62880;SDS011;48969;49.934;8.596;2024-02-26T12:14:03;11.23;;;8.10;;
62880;SDS011;48969;49.934;8.596;2024-02-26T12:16:38;1.88;;;1.50;;
62880;SDS011;48969;49.934;8.596;2024-02-26T12:19:07;3.20;;;2.50;;
62880;SDS011;48969;49.934;8.596;2024-02-26T12:21:33;6.47;;;3.75;;
62880;SDS011;48969;49.934;8.596;2024-02-26T12:24:09;3.90;;;3.17;;
62880;SDS011;48969;49.934;8.596;2024-02-26T12:26:35;5.70;;;1.83;;
62880;SDS011;48969;49.934;8.596;2024-02-26T12:29:00;5.60;;;2.63;;
62880;SDS011;48969;49.934;8.596;2024-02-26T12:31:26;6.15;;;2.78;;
62880;SDS011;48969;49.934;8.596;2024-02-26T12:33:53;3.38;;;2.65;;
62880;SDS011;48969;49.934;8.596;2024-02-26T12:36:18;6.03;;;3.10;;
62880;SDS011;48969;49.934;8.596;2024-02-26T12:38:44;1.08;;;0.98;;
62880;SDS011;48969;49.934;8.596;2024-02-26T12:41:09;2.47;;;1.50;;
62880;SDS011;48969;49.934;8.596;2024-02-26T12:43:34;2.40;;;2.25;;
62880;SDS011;48969;49.934;8.596;2024-02-26T12:46:02;1.85;;;1.67;;
62880;SDS011;48969;49.934;8.596;2024-02-26T12:48:28;2.85;;;2.50;;
62880;SDS011;48969;49.934;8.596;2024-02-26T12:50:53;3.75;;;2.95;;
62880;SDS011;48969;49.934;8.596;2024-02-26T12:53:19;4.30;;;2.55;;
62880;SDS011;48969;49.934;8.596;2024-02-26T12:55:44;4.10;;;2.75;;
62880;SDS011;48969;49.934;8.596;2024-02-26T12:58:10;7.13;;;3.08;;
62880;SDS011;48969;49.934;8.596;2024-02-26T13:00:36;8.35;;;4.15;;
62880;SDS011;48969;49.934;8.596;2024-02-26T13:03:01;3.85;;;2.83;;
62880;SDS011;48969;49.934;8.596;2024-02-26T13:05:27;6.60;;;3.92;;
62880;SDS011;48969;49.934;8.596;2024-02-26T13:07:52;9.73;;;4.47;;
62880;SDS011;48969;49.934;8.596;2024-02-26T13:10:18;4.32;;;3.35;;
62880;SDS011;48969;49.934;8.596;2024-02-26T13:12:48;3.83;;;3.10;;
62880;SDS011;48969;49.934;8.596;2024-02-26T13:15:16;5.57;;;3.15;;
62880;SDS011;48969;49.934;8.596;2024-02-26T13:17:41;4.72;;;2.85;;
62880;SDS011;48969;49.934;8.596;2024-02-26T13:20:08;5.78;;;3.55;;
62880;SDS011;48969;49.934;8.596;2024-02-26T13:22:34;9.27;;;7.43;;
62880;SDS011;48969;49.934;8.596;2024-02-26T13:25:00;3.33;;;2.28;;
62880;SDS011;48969;49.934;8.596;2024-02-26T13:27:27;7.57;;;3.53;;
62880;SDS011;48969;49.934;8.596;2024-02-26T13:30:05;4.65;;;3.53;;
62880;SDS011;48969;49.934;8.596;2024-02-26T13:32:35;3.47;;;2.92;;
62880;SDS011;48969;49.934;8.596;2024-02-26T13:35:04;10.18;;;7.03;;
62880;SDS011;48969;49.934;8.596;2024-02-26T13:37:29;3.53;;;2.80;;
62880;SDS011;48969;49.934;8.596;2024-02-26T13:39:55;4.15;;;2.50;;
62880;SDS011;48969;49.934;8.596;2024-02-26T13:42:20;2.65;;;2.45;;
62880;SDS011;48969;49.934;8.596;2024-02-26T13:44:45;4.63;;;3.47;;
62880;SDS011;48969;49.934;8.596;2024-02-26T13:47:10;2.45;;;2.15;;
62880;SDS011;48969;49.934;8.596;2024-02-26T13:49:36;6.68;;;2.72;;
62880;SDS011;48969;49.934;8.596;2024-02-26T13:52:01;1.02;;;1.00;;
62880;SDS011;48969;49.934;8.596;2024-02-26T13:54:26;6.22;;;3.58;;
62880;SDS011;48969;49.934;8.596;2024-02-26T13:56:51;5.65;;;3.42;;
62880;SDS011;48969;49.934;8.596;2024-02-26T13:59:18;8.55;;;6.18;;
62880;SDS011;48969;49.934;8.596;2024-02-26T14:01:43;3.42;;;2.72;;
62880;SDS011;48969;49.934;8.596;2024-02-26T14:04:08;5.25;;;2.63;;
62880;SDS011;48969;49.934;8.596;2024-02-26T14:06:34;4.45;;;2.22;;
62880;SDS011;48969;49.934;8.596;2024-02-26T14:08:59;3.38;;;2.50;;
62880;SDS011;48969;49.934;8.596;2024-02-26T14:11:24;5.20;;;3.03;;
62880;SDS011;48969;49.934;8.596;2024-02-26T14:13:50;2.88;;;1.83;;
62880;SDS011;48969;49.934;8.596;2024-02-26T14:16:15;4.25;;;2.40;;
62880;SDS011;48969;49.934;8.596;2024-02-26T14:18:41;8.50;;;5.80;;
62880;SDS011;48969;49.934;8.596;2024-02-26T14:21:09;2.83;;;2.42;;
62880;SDS011;48969;49.934;8.596;2024-02-26T14:23:34;3.28;;;2.47;;
62880;SDS011;48969;49.934;8.596;2024-02-26T14:26:00;4.50;;;2.70;;
62880;SDS011;48969;49.934;8.596;2024-02-26T14:28:26;2.50;;;2.08;;
62880;SDS011;48969;49.934;8.596;2024-02-26T14:30:53;2.13;;;1.90;;
62880;SDS011;48969;49.934;8.596;2024-02-26T14:33:18;5.15;;;2.83;;
62880;SDS011;48969;49.934;8.596;2024-02-26T14:35:43;3.95;;;2.25;;
62880;SDS011;48969;49.934;8.596;2024-02-26T14:38:09;2.72;;;1.80;;
62880;SDS011;48969;49.934;8.596;2024-02-26T14:40:34;7.60;;;5.53;;
62880;SDS011;48969;49.934;8.596;2024-02-26T14:43:00;2.08;;;1.10;;
62880;SDS011;48969;49.934;8.596;2024-02-26T14:45:25;2.20;;;1.80;;
62880;SDS011;48969;49.934;8.596;2024-02-26T14:47:51;4.15;;;2.47;;